sensor_id;sensor_type;location;lat;lon;timestamp;pressure;altitude;pressure_sealevel;temperature;humidity
28683;BME280;15862;43.062;25.626;2022-08-16T00:02:17;99349.47;;;19.11;100.00
28683;BME280;15862;43.062;25.626;2022-08-16T00:04:42;99347.84;;;19.10;100.00
28683;BME280;15862;43.062;25.626;2022-08-16T00:07:08;99354.38;;;19.06;100.00
28683;BME280;15862;43.062;25.626;2022-08-16T00:09:33;99358.34;;;19.02;100.00
28683;BME280;15862;43.062;25.626;2022-08-16T00:11:58;99357.72;;;19.00;100.00
28683;BME280;15862;43.062;25.626;2022-08-16T00:14:26;99354.75;;;19.03;100.00
28683;BME280;15862;43.062;25.626;2022-08-16T00:16:52;99339.66;;;18.90;100.00
28683;BME280;15862;43.062;25.626;2022-08-16T00:19:23;99350.59;;;18.94;100.00
28683;BME280;15862;43.062;25.626;2022-08-16T00:21:49;99362.69;;;18.95;100.00
28683;BME280;15862;43.062;25.626;2022-08-16T00:24:15;99363.34;;;18.97;100.00
28683;BME280;15862;43.062;25.626;2022-08-16T00:26:41;99362.31;;;18.98;100.00
28683;BME280;15862;43.062;25.626;2022-08-16T00:29:06;99360.72;;;18.97;100.00
28683;BME280;15862;43.062;25.626;2022-08-16T00:31:31;99357.00;;;18.91;100.00
28683;BME280;15862;43.062;25.626;2022-08-16T00:33:58;99358.16;;;18.89;100.00
28683;BME280;15862;43.062;25.626;2022-08-16T00:36:23;99361.78;;;18.88;100.00
28683;BME280;15862;43.062;25.626;2022-08-16T00:38:48;99355.09;;;18.85;100.00
28683;BME280;15862;43.062;25.626;2022-08-16T00:41:14;99359.22;;;18.80;100.00
28683;BME280;15862;43.062;25.626;2022-08-16T00:43:39;99366.44;;;18.78;100.00
28683;BME280;15862;43.062;25.626;2022-08-16T00:48:30;99376.63;;;18.73;100.00
28683;BME280;15862;43.062;25.626;2022-08-16T00:50:55;99373.38;;;18.71;100.00
28683;BME280;15862;43.062;25.626;2022-08-16T00:53:21;99379.78;;;18.68;100.00
28683;BME280;15862;43.062;25.626;2022-08-16T00:55:50;99380.94;;;18.66;100.00
28683;BME280;15862;43.062;25.626;2022-08-16T00:58:17;99376.75;;;18.57;100.00
28683;BME280;15862;43.062;25.626;2022-08-16T01:00:43;99385.59;;;18.56;100.00
28683;BME280;15862;43.062;25.626;2022-08-16T01:03:11;99386.44;;;18.56;100.00
28683;BME280;15862;43.062;25.626;2022-08-16T01:05:37;99393.25;;;18.57;100.00
28683;BME280;15862;43.062;25.626;2022-08-16T01:08:03;99397.69;;;18.57;100.00
28683;BME280;15862;43.062;25.626;2022-08-16T01:10:30;99396.72;;;18.58;100.00
28683;BME280;15862;43.062;25.626;2022-08-16T01:12:56;99403.72;;;18.57;100.00
28683;BME280;15862;43.062;25.626;2022-08-16T01:15:22;99398.03;;;18.54;100.00
28683;BME280;15862;43.062;25.626;2022-08-16T01:17:48;99408.88;;;18.51;100.00
28683;BME280;15862;43.062;25.626;2022-08-16T01:20:14;99406.91;;;18.53;100.00
28683;BME280;15862;43.062;25.626;2022-08-16T01:25:33;99398.41;;;18.51;100.00
28683;BME280;15862;43.062;25.626;2022-08-16T01:27:59;99399.38;;;18.50;100.00
28683;BME280;15862;43.062;25.626;2022-08-16T01:30:32;99398.72;;;18.48;100.00
28683;BME280;15862;43.062;25.626;2022-08-16T01:33:00;99408.28;;;18.41;100.00
28683;BME280;15862;43.062;25.626;2022-08-16T01:35:27;99414.63;;;18.46;100.00
28683;BME280;15862;43.062;25.626;2022-08-16T01:37:55;99419.38;;;18.43;100.00
28683;BME280;15862;43.062;25.626;2022-08-16T01:40:23;99420.38;;;18.42;100.00
28683;BME280;15862;43.062;25.626;2022-08-16T01:42:48;99415.13;;;18.42;100.00
28683;BME280;15862;43.062;25.626;2022-08-16T01:45:15;99424.81;;;18.42;100.00
28683;BME280;15862;43.062;25.626;2022-08-16T01:47:41;99425.47;;;18.36;100.00
28683;BME280;15862;43.062;25.626;2022-08-16T01:50:07;99419.78;;;18.32;100.00
28683;BME280;15862;43.062;25.626;2022-08-16T01:52:33;99411.31;;;18.30;100.00
28683;BME280;15862;43.062;25.626;2022-08-16T01:54:59;99418.16;;;18.31;100.00
28683;BME280;15862;43.062;25.626;2022-08-16T01:57:24;99412.63;;;18.26;100.00
28683;BME280;15862;43.062;25.626;2022-08-16T01:59:49;99405.75;;;18.25;100.00
28683;BME280;15862;43.062;25.626;2022-08-16T02:02:14;99411.16;;;18.24;100.00
28683;BME280;15862;43.062;25.626;2022-08-16T02:04:40;99406.75;;;18.24;100.00
28683;BME280;15862;43.062;25.626;2022-08-16T02:07:05;99395.31;;;18.17;100.00
28683;BME280;15862;43.062;25.626;2022-08-16T02:09:34;99400.25;;;18.20;100.00
28683;BME280;15862;43.062;25.626;2022-08-16T02:12:02;99397.31;;;18.15;100.00
28683;BME280;15862;43.062;25.626;2022-08-16T02:14:28;99397.63;;;18.12;100.00
28683;BME280;15862;43.062;25.626;2022-08-16T02:16:57;99402.88;;;18.12;100.00
28683;BME280;15862;43.062;25.626;2022-08-16T02:19:24;99397.81;;;18.11;100.00
28683;BME280;15862;43.062;25.626;2022-08-16T02:21:51;99403.75;;;18.05;100.00
28683;BME280;15862;43.062;25.626;2022-08-16T02:24:18;99405.53;;;18.04;100.00
28683;BME280;15862;43.062;25.626;2022-08-16T02:26:43;99410.28;;;18.01;100.00
28683;BME280;15862;43.062;25.626;2022-08-16T02:29:08;99410.94;;;18.03;100.00
28683;BME280;15862;43.062;25.626;2022-08-16T02:31:34;99408.50;;;18.01;100.00
28683;BME280;15862;43.062;25.626;2022-08-16T02:33:59;99414.09;;;17.90;100.00
28683;BME280;15862;43.062;25.626;2022-08-16T02:36:25;99413.50;;;17.80;100.00
28683;BME280;15862;43.062;25.626;2022-08-16T02:38:51;99417.91;;;17.80;100.00
28683;BME280;15862;43.062;25.626;2022-08-16T02:41:16;99424.75;;;17.81;100.00
28683;BME280;15862;43.062;25.626;2022-08-16T02:43:41;99429.50;;;17.77;100.00
28683;BME280;15862;43.062;25.626;2022-08-16T02:46:07;99432.59;;;17.81;100.00
28683;BME280;15862;43.062;25.626;2022-08-16T02:48:32;99431.13;;;17.86;100.00
28683;BME280;15862;43.062;25.626;2022-08-16T02:50:58;99431.13;;;17.86;100.00
28683;BME280;15862;43.062;25.626;2022-08-16T02:53:24;99437.97;;;17.87;100.00
28683;BME280;15862;43.062;25.626;2022-08-16T02:55:50;99434.06;;;17.83;100.00
28683;BME280;15862;43.062;25.626;2022-08-16T02:58:15;99437.31;;;17.85;100.00
28683;BME280;15862;43.062;25.626;2022-08-16T03:00:40;99433.72;;;17.86;100.00
28683;BME280;15862;43.062;25.626;2022-08-16T03:03:06;99439.59;;;17.88;100.00
28683;BME280;15862;43.062;25.626;2022-08-16T03:05:31;99437.31;;;17.85;100.00
28683;BME280;15862;43.062;25.626;2022-08-16T03:07:56;99445.97;;;17.86;100.00
28683;BME280;15862;43.062;25.626;2022-08-16T03:10:22;99455.81;;;17.84;100.00
28683;BME280;15862;43.062;25.626;2022-08-16T03:12:47;99457.75;;;17.82;100.00
28683;BME280;15862;43.062;25.626;2022-08-16T03:15:14;99459.91;;;17.70;100.00
28683;BME280;15862;43.062;25.626;2022-08-16T03:17:40;99457.44;;;17.77;100.00
28683;BME280;15862;43.062;25.626;2022-08-16T03:20:06;99458.09;;;17.79;100.00
28683;BME280;15862;43.062;25.626;2022-08-16T03:22:32;99462.50;;;17.78;100.00
28683;BME280;15862;43.062;25.626;2022-08-16T03:24:58;99462.81;;;17.83;100.00
28683;BME280;15862;43.062;25.626;2022-08-16T03:27:25;99469.69;;;17.76;100.00
28683;BME280;15862;43.062;25.626;2022-08-16T03:29:51;99464.94;;;17.80;100.00
28683;BME280;15862;43.062;25.626;2022-08-16T03:32:16;99470.31;;;17.86;100.00
28683;BME280;15862;43.062;25.626;2022-08-16T03:34:41;99453.13;;;17.92;100.00
28683;BME280;15862;43.062;25.626;2022-08-16T03:37:06;99450.34;;;17.93;100.00
28683;BME280;15862;43.062;25.626;2022-08-16T03:39:32;99454.72;;;18.01;100.00
28683;BME280;15862;43.062;25.626;2022-08-16T03:41:57;99459.44;;;18.05;100.00
28683;BME280;15862;43.062;25.626;2022-08-16T03:44:22;99462.81;;;18.14;100.00
28683;BME280;15862;43.062;25.626;2022-08-16T03:46:48;99453.34;;;18.21;100.00
28683;BME280;15862;43.062;25.626;2022-08-16T03:49:13;99462.66;;;18.23;100.00
28683;BME280;15862;43.062;25.626;2022-08-16T03:51:39;99469.19;;;18.27;100.00
28683;BME280;15862;43.062;25.626;2022-08-16T03:54:05;99463.16;;;18.27;100.00
28683;BME280;15862;43.062;25.626;2022-08-16T03:56:30;99467.78;;;18.39;100.00
28683;BME280;15862;43.062;25.626;2022-08-16T03:58:56;99454.56;;;18.41;100.00
28683;BME280;15862;43.062;25.626;2022-08-16T04:01:22;99454.50;;;18.48;100.00
28683;BME280;15862;43.062;25.626;2022-08-16T04:03:48;99449.38;;;18.55;100.00
28683;BME280;15862;43.062;25.626;2022-08-16T04:06:14;99447.59;;;18.55;100.00
28683;BME280;15862;43.062;25.626;2022-08-16T04:08:39;99449.16;;;18.64;100.00
28683;BME280;15862;43.062;25.626;2022-08-16T04:11:04;99439.97;;;18.68;100.00
28683;BME280;15862;43.062;25.626;2022-08-16T04:13:30;99445.03;;;18.70;100.00
28683;BME280;15862;43.062;25.626;2022-08-16T04:15:55;99446.66;;;18.71;100.00
28683;BME280;15862;43.062;25.626;2022-08-16T04:18:23;99437.75;;;18.80;100.00
28683;BME280;15862;43.062;25.626;2022-08-16T04:20:48;99435.69;;;18.90;100.00
28683;BME280;15862;43.062;25.626;2022-08-16T04:23:14;99428.16;;;18.95;100.00
28683;BME280;15862;43.062;25.626;2022-08-16T04:25:40;99433.72;;;18.92;100.00
28683;BME280;15862;43.062;25.626;2022-08-16T04:28:05;99430.84;;;19.01;100.00
28683;BME280;15862;43.062;25.626;2022-08-16T04:30:31;99434.38;;;19.08;100.00
28683;BME280;15862;43.062;25.626;2022-08-16T04:32:56;99426.69;;;19.15;100.00
28683;BME280;15862;43.062;25.626;2022-08-16T04:35:21;99433.81;;;19.20;100.00
28683;BME280;15862;43.062;25.626;2022-08-16T04:37:47;99429.13;;;19.30;100.00
28683;BME280;15862;43.062;25.626;2022-08-16T04:40:13;99428.88;;;19.40;100.00
28683;BME280;15862;43.062;25.626;2022-08-16T04:42:39;99426.44;;;19.53;100.00
28683;BME280;15862;43.062;25.626;2022-08-16T04:45:06;99424.47;;;19.69;100.00
28683;BME280;15862;43.062;25.626;2022-08-16T04:47:32;99416.13;;;19.80;100.00
28683;BME280;15862;43.062;25.626;2022-08-16T04:49:59;99408.53;;;19.99;100.00
28683;BME280;15862;43.062;25.626;2022-08-16T04:52:25;99411.94;;;20.14;100.00
28683;BME280;15862;43.062;25.626;2022-08-16T04:54:50;99408.53;;;20.35;100.00
28683;BME280;15862;43.062;25.626;2022-08-16T04:57:15;99401.66;;;20.55;100.00
28683;BME280;15862;43.062;25.626;2022-08-16T04:59:41;99392.50;;;20.72;100.00
28683;BME280;15862;43.062;25.626;2022-08-16T05:02:07;99393.28;;;20.86;100.00
28683;BME280;15862;43.062;25.626;2022-08-16T05:04:32;99381.50;;;21.03;100.00
28683;BME280;15862;43.062;25.626;2022-08-16T05:06:57;99384.47;;;21.21;100.00
28683;BME280;15862;43.062;25.626;2022-08-16T05:09:23;99371.00;;;21.37;100.00
28683;BME280;15862;43.062;25.626;2022-08-16T05:11:48;99363.78;;;21.52;100.00
28683;BME280;15862;43.062;25.626;2022-08-16T05:14:13;99369.75;;;21.60;100.00
28683;BME280;15862;43.062;25.626;2022-08-16T05:16:39;99368.00;;;21.80;100.00
28683;BME280;15862;43.062;25.626;2022-08-16T05:19:05;99378.41;;;22.01;100.00
28683;BME280;15862;43.062;25.626;2022-08-16T05:21:30;99371.19;;;22.23;100.00
28683;BME280;15862;43.062;25.626;2022-08-16T05:23:56;99371.03;;;22.43;100.00
28683;BME280;15862;43.062;25.626;2022-08-16T05:26:23;99370.25;;;22.75;100.00
28683;BME280;15862;43.062;25.626;2022-08-16T05:28:49;99378.56;;;22.92;100.00
28683;BME280;15862;43.062;25.626;2022-08-16T05:31:14;99369.66;;;23.06;100.00
28683;BME280;15862;43.062;25.626;2022-08-16T05:33:40;99371.84;;;23.28;100.00
28683;BME280;15862;43.062;25.626;2022-08-16T05:36:06;99374.44;;;23.41;100.00
28683;BME280;15862;43.062;25.626;2022-08-16T05:38:31;99369.72;;;23.62;100.00
28683;BME280;15862;43.062;25.626;2022-08-16T05:40:57;99367.47;;;23.79;100.00
28683;BME280;15862;43.062;25.626;2022-08-16T05:43:22;99371.84;;;23.97;100.00
28683;BME280;15862;43.062;25.626;2022-08-16T05:45:48;99372.38;;;24.12;100.00
28683;BME280;15862;43.062;25.626;2022-08-16T05:48:14;99362.38;;;24.21;99.80
28683;BME280;15862;43.062;25.626;2022-08-16T05:50:39;99367.97;;;24.37;97.56
28683;BME280;15862;43.062;25.626;2022-08-16T05:53:05;99365.44;;;24.55;97.75
28683;BME280;15862;43.062;25.626;2022-08-16T05:55:31;99359.19;;;24.74;95.91
28683;BME280;15862;43.062;25.626;2022-08-16T05:57:56;99364.63;;;25.03;89.43
28683;BME280;15862;43.062;25.626;2022-08-16T06:00:21;99365.16;;;25.54;86.46
28683;BME280;15862;43.062;25.626;2022-08-16T06:02:47;99365.25;;;26.24;78.47
28683;BME280;15862;43.062;25.626;2022-08-16T06:05:12;99369.84;;;27.44;69.24
28683;BME280;15862;43.062;25.626;2022-08-16T06:07:38;99366.22;;;28.57;60.89
28683;BME280;15862;43.062;25.626;2022-08-16T06:10:03;99374.25;;;29.60;56.09
28683;BME280;15862;43.062;25.626;2022-08-16T06:12:29;99371.91;;;30.32;51.32
28683;BME280;15862;43.062;25.626;2022-08-16T06:14:58;99376.50;;;31.31;48.71
28683;BME280;15862;43.062;25.626;2022-08-16T06:17:26;99370.50;;;32.11;46.71
28683;BME280;15862;43.062;25.626;2022-08-16T06:19:51;99376.97;;;33.30;44.11
28683;BME280;15862;43.062;25.626;2022-08-16T06:22:17;99373.09;;;33.85;42.38
28683;BME280;15862;43.062;25.626;2022-08-16T06:24:42;99381.38;;;34.80;40.92
28683;BME280;15862;43.062;25.626;2022-08-16T06:27:08;99369.84;;;35.60;38.92
28683;BME280;15862;43.062;25.626;2022-08-16T06:29:34;99369.59;;;35.80;39.00
28683;BME280;15862;43.062;25.626;2022-08-16T06:31:59;99376.69;;;35.94;37.82
28683;BME280;15862;43.062;25.626;2022-08-16T06:34:24;99377.59;;;36.08;37.11
28683;BME280;15862;43.062;25.626;2022-08-16T06:36:49;99371.03;;;36.87;36.34
28683;BME280;15862;43.062;25.626;2022-08-16T06:39:15;99375.41;;;36.83;36.03
28683;BME280;15862;43.062;25.626;2022-08-16T06:41:41;99378.03;;;36.88;35.23
28683;BME280;15862;43.062;25.626;2022-08-16T06:44:07;99369.31;;;36.04;36.63
28683;BME280;15862;43.062;25.626;2022-08-16T06:46:33;99368.47;;;36.46;35.94
28683;BME280;15862;43.062;25.626;2022-08-16T06:49:02;99365.84;;;36.59;35.63
28683;BME280;15862;43.062;25.626;2022-08-16T06:51:27;99367.88;;;36.99;34.93
28683;BME280;15862;43.062;25.626;2022-08-16T06:53:52;99358.94;;;37.17;35.05
28683;BME280;15862;43.062;25.626;2022-08-16T06:56:18;99365.81;;;37.23;34.58
28683;BME280;15862;43.062;25.626;2022-08-16T06:58:43;99365.59;;;38.62;33.12
28683;BME280;15862;43.062;25.626;2022-08-16T07:01:08;99352.25;;;39.48;31.55
28683;BME280;15862;43.062;25.626;2022-08-16T07:03:34;99356.38;;;39.15;32.42
28683;BME280;15862;43.062;25.626;2022-08-16T07:05:59;99364.16;;;39.08;30.96
28683;BME280;15862;43.062;25.626;2022-08-16T07:08:25;99355.50;;;39.75;31.15
28683;BME280;15862;43.062;25.626;2022-08-16T07:10:50;99357.19;;;40.01;30.83
28683;BME280;15862;43.062;25.626;2022-08-16T07:13:16;99352.50;;;39.85;30.75
28683;BME280;15862;43.062;25.626;2022-08-16T07:15:41;99345.19;;;40.95;29.84
28683;BME280;15862;43.062;25.626;2022-08-16T07:18:07;99340.63;;;41.25;28.37
28683;BME280;15862;43.062;25.626;2022-08-16T07:20:35;99332.25;;;41.75;28.10
28683;BME280;15862;43.062;25.626;2022-08-16T07:23:02;99329.81;;;41.54;28.67
28683;BME280;15862;43.062;25.626;2022-08-16T07:25:28;99329.63;;;42.28;27.98
28683;BME280;15862;43.062;25.626;2022-08-16T07:27:54;99320.50;;;41.63;26.87
28683;BME280;15862;43.062;25.626;2022-08-16T07:30:19;99315.25;;;39.91;28.93
28683;BME280;15862;43.062;25.626;2022-08-16T07:32:44;99321.16;;;39.92;29.09
28683;BME280;15862;43.062;25.626;2022-08-16T07:35:10;99323.09;;;40.34;28.47
28683;BME280;15862;43.062;25.626;2022-08-16T07:37:35;99322.44;;;40.46;27.43
28683;BME280;15862;43.062;25.626;2022-08-16T07:40:00;99319.09;;;40.06;28.42
28683;BME280;15862;43.062;25.626;2022-08-16T07:42:26;99319.72;;;39.95;28.49
28683;BME280;15862;43.062;25.626;2022-08-16T07:44:51;99320.31;;;39.84;28.63
28683;BME280;15862;43.062;25.626;2022-08-16T07:47:17;99320.66;;;39.91;29.07
28683;BME280;15862;43.062;25.626;2022-08-16T07:49:42;99329.78;;;40.11;28.61
28683;BME280;15862;43.062;25.626;2022-08-16T07:52:07;99328.47;;;40.68;27.14
28683;BME280;15862;43.062;25.626;2022-08-16T07:54:33;99321.81;;;40.49;27.85
28683;BME280;15862;43.062;25.626;2022-08-16T07:56:58;99326.56;;;40.69;26.86
28683;BME280;15862;43.062;25.626;2022-08-16T07:59:23;99331.53;;;40.58;28.18
28683;BME280;15862;43.062;25.626;2022-08-16T08:01:50;99334.09;;;41.83;25.84
28683;BME280;15862;43.062;25.626;2022-08-16T08:04:17;99334.09;;;41.83;25.73
28683;BME280;15862;43.062;25.626;2022-08-16T08:06:42;99330.84;;;41.98;26.17
28683;BME280;15862;43.062;25.626;2022-08-16T08:09:08;99326.31;;;42.43;25.88
28683;BME280;15862;43.062;25.626;2022-08-16T08:11:33;99325.91;;;40.80;26.82
28683;BME280;15862;43.062;25.626;2022-08-16T08:13:58;99318.44;;;40.77;26.46
28683;BME280;15862;43.062;25.626;2022-08-16T08:16:24;99321.78;;;40.57;26.88
28683;BME280;15862;43.062;25.626;2022-08-16T08:18:49;99317.91;;;41.66;25.70
28683;BME280;15862;43.062;25.626;2022-08-16T08:21:15;99304.28;;;41.09;26.33
28683;BME280;15862;43.062;25.626;2022-08-16T08:23:43;99321.03;;;41.57;26.25
28683;BME280;15862;43.062;25.626;2022-08-16T08:26:08;99322.09;;;41.64;26.43
28683;BME280;15862;43.062;25.626;2022-08-16T08:28:33;99316.78;;;41.67;25.52
28683;BME280;15862;43.062;25.626;2022-08-16T08:30:59;99321.19;;;42.41;25.16
28683;BME280;15862;43.062;25.626;2022-08-16T08:33:24;99303.19;;;43.14;24.14
28683;BME280;15862;43.062;25.626;2022-08-16T08:35:49;99315.06;;;43.21;24.62
28683;BME280;15862;43.062;25.626;2022-08-16T08:38:15;99306.81;;;43.29;24.64
28683;BME280;15862;43.062;25.626;2022-08-16T08:40:41;99296.97;;;44.00;23.84
28683;BME280;15862;43.062;25.626;2022-08-16T08:43:06;99306.56;;;43.94;24.07
28683;BME280;15862;43.062;25.626;2022-08-16T08:45:35;99291.78;;;42.88;24.92
28683;BME280;15862;43.062;25.626;2022-08-16T08:48:01;99307.72;;;43.10;24.71
28683;BME280;15862;43.062;25.626;2022-08-16T08:50:26;99304.78;;;43.38;23.81
28683;BME280;15862;43.062;25.626;2022-08-16T08:52:51;99308.84;;;43.20;24.70
28683;BME280;15862;43.062;25.626;2022-08-16T08:55:18;99304.25;;;42.56;25.62
28683;BME280;15862;43.062;25.626;2022-08-16T08:57:46;99312.16;;;43.26;24.32
28683;BME280;15862;43.062;25.626;2022-08-16T09:00:13;99295.41;;;42.80;24.67
28683;BME280;15862;43.062;25.626;2022-08-16T09:02:38;99310.63;;;44.00;24.00
28683;BME280;15862;43.062;25.626;2022-08-16T09:05:04;99303.16;;;44.52;23.35
28683;BME280;15862;43.062;25.626;2022-08-16T09:07:29;99292.22;;;44.79;23.52
28683;BME280;15862;43.062;25.626;2022-08-16T09:09:55;99310.50;;;44.36;23.21
28683;BME280;15862;43.062;25.626;2022-08-16T09:12:21;99309.97;;;43.79;23.44
28683;BME280;15862;43.062;25.626;2022-08-16T09:14:47;99298.56;;;44.68;23.25
28683;BME280;15862;43.062;25.626;2022-08-16T09:17:13;99292.44;;;45.01;23.02
28683;BME280;15862;43.062;25.626;2022-08-16T09:19:38;99297.03;;;45.97;22.46
28683;BME280;15862;43.062;25.626;2022-08-16T09:22:04;99316.97;;;45.63;22.37
28683;BME280;15862;43.062;25.626;2022-08-16T09:24:31;99310.22;;;43.74;23.78
28683;BME280;15862;43.062;25.626;2022-08-16T09:26:56;99304.56;;;42.23;24.83
28683;BME280;15862;43.062;25.626;2022-08-16T09:29:22;99299.69;;;41.38;25.36
28683;BME280;15862;43.062;25.626;2022-08-16T09:31:47;99288.75;;;40.72;26.77
28683;BME280;15862;43.062;25.626;2022-08-16T09:34:13;99287.75;;;40.85;26.08
28683;BME280;15862;43.062;25.626;2022-08-16T09:36:38;99294.84;;;42.01;25.82
28683;BME280;15862;43.062;25.626;2022-08-16T09:39:04;99294.06;;;43.93;23.81
28683;BME280;15862;43.062;25.626;2022-08-16T09:41:29;99282.03;;;42.87;24.63
28683;BME280;15862;43.062;25.626;2022-08-16T09:43:55;99286.50;;;40.82;26.50
28683;BME280;15862;43.062;25.626;2022-08-16T09:46:21;99285.25;;;39.14;28.24
28683;BME280;15862;43.062;25.626;2022-08-16T09:48:47;99281.13;;;38.87;29.06
28683;BME280;15862;43.062;25.626;2022-08-16T09:51:13;99276.88;;;38.94;28.78
28683;BME280;15862;43.062;25.626;2022-08-16T09:53:38;99279.50;;;39.08;28.61
28683;BME280;15862;43.062;25.626;2022-08-16T09:56:07;99280.16;;;39.13;28.56
28683;BME280;15862;43.062;25.626;2022-08-16T09:58:34;99285.88;;;38.59;29.11
28683;BME280;15862;43.062;25.626;2022-08-16T10:00:59;99276.94;;;38.29;29.60
28683;BME280;15862;43.062;25.626;2022-08-16T10:03:24;99278.25;;;38.18;29.84
28683;BME280;15862;43.062;25.626;2022-08-16T10:05:49;99273.72;;;38.70;28.84
28683;BME280;15862;43.062;25.626;2022-08-16T10:08:15;99284.84;;;38.99;28.82
28683;BME280;15862;43.062;25.626;2022-08-16T10:10:41;99277.75;;;39.59;27.63
28683;BME280;15862;43.062;25.626;2022-08-16T10:13:06;99281.97;;;40.15;27.71
28683;BME280;15862;43.062;25.626;2022-08-16T10:15:43;99278.56;;;40.61;26.39
28683;BME280;15862;43.062;25.626;2022-08-16T10:18:09;99277.97;;;40.13;26.83
28683;BME280;15862;43.062;25.626;2022-08-16T10:20:38;99279.09;;;41.00;26.30
28683;BME280;15862;43.062;25.626;2022-08-16T10:23:04;99286.53;;;42.38;25.53
28683;BME280;15862;43.062;25.626;2022-08-16T10:25:30;99280.31;;;41.57;25.34
28683;BME280;15862;43.062;25.626;2022-08-16T10:27:55;99286.28;;;42.11;24.75
28683;BME280;15862;43.062;25.626;2022-08-16T10:30:20;99285.84;;;41.80;24.94
28683;BME280;15862;43.062;25.626;2022-08-16T10:32:45;99286.38;;;41.54;25.29
28683;BME280;15862;43.062;25.626;2022-08-16T10:35:11;99279.47;;;40.90;25.83
28683;BME280;15862;43.062;25.626;2022-08-16T10:37:36;99278.72;;;42.17;24.45
28683;BME280;15862;43.062;25.626;2022-08-16T10:40:05;99280.69;;;43.64;23.49
28683;BME280;15862;43.062;25.626;2022-08-16T10:42:32;99277.03;;;43.96;22.83
28683;BME280;15862;43.062;25.626;2022-08-16T10:44:57;99261.84;;;44.96;22.03
28683;BME280;15862;43.062;25.626;2022-08-16T10:47:22;99282.88;;;45.57;21.97
28683;BME280;15862;43.062;25.626;2022-08-16T10:49:47;99285.13;;;45.70;21.70
28683;BME280;15862;43.062;25.626;2022-08-16T10:52:14;99277.22;;;45.50;21.27
28683;BME280;15862;43.062;25.626;2022-08-16T10:54:39;99273.13;;;45.25;21.79
28683;BME280;15862;43.062;25.626;2022-08-16T10:57:04;99269.31;;;45.45;21.63
28683;BME280;15862;43.062;25.626;2022-08-16T10:59:30;99265.16;;;45.85;21.36
28683;BME280;15862;43.062;25.626;2022-08-16T11:01:56;99265.28;;;45.92;21.21
28683;BME280;15862;43.062;25.626;2022-08-16T11:04:22;99254.13;;;44.40;23.13
28683;BME280;15862;43.062;25.626;2022-08-16T11:06:47;99268.19;;;44.42;22.98
28683;BME280;15862;43.062;25.626;2022-08-16T11:09:12;99276.84;;;43.65;22.74
28683;BME280;15862;43.062;25.626;2022-08-16T11:11:38;99261.97;;;41.94;24.36
28683;BME280;15862;43.062;25.626;2022-08-16T11:14:03;99259.00;;;41.30;24.57
28683;BME280;15862;43.062;25.626;2022-08-16T11:16:29;99246.50;;;42.07;24.35
28683;BME280;15862;43.062;25.626;2022-08-16T11:18:54;99251.88;;;43.39;23.42
28683;BME280;15862;43.062;25.626;2022-08-16T11:21:20;99248.69;;;42.78;23.60
28683;BME280;15862;43.062;25.626;2022-08-16T11:23:47;99244.22;;;42.29;24.05
28683;BME280;15862;43.062;25.626;2022-08-16T11:26:13;99239.88;;;41.26;24.47
28683;BME280;15862;43.062;25.626;2022-08-16T11:28:38;99231.59;;;40.31;25.35
28683;BME280;15862;43.062;25.626;2022-08-16T11:31:03;99239.56;;;39.86;26.55
28683;BME280;15862;43.062;25.626;2022-08-16T11:33:29;99228.22;;;39.50;26.21
28683;BME280;15862;43.062;25.626;2022-08-16T11:35:54;99233.31;;;40.44;25.30
28683;BME280;15862;43.062;25.626;2022-08-16T11:38:21;99235.97;;;42.05;23.38
28683;BME280;15862;43.062;25.626;2022-08-16T11:40:48;99235.56;;;44.18;22.22
28683;BME280;15862;43.062;25.626;2022-08-16T11:43:16;99237.59;;;43.30;22.54
28683;BME280;15862;43.062;25.626;2022-08-16T11:45:43;99230.03;;;40.68;25.27
28683;BME280;15862;43.062;25.626;2022-08-16T11:48:08;99233.13;;;40.49;25.35
28683;BME280;15862;43.062;25.626;2022-08-16T11:50:33;99229.53;;;41.89;23.60
28683;BME280;15862;43.062;25.626;2022-08-16T11:53:03;99225.16;;;44.08;21.59
28683;BME280;15862;43.062;25.626;2022-08-16T11:55:29;99220.44;;;44.48;21.54
28683;BME280;15862;43.062;25.626;2022-08-16T11:57:54;99219.31;;;45.10;20.98
28683;BME280;15862;43.062;25.626;2022-08-16T12:00:20;99211.47;;;44.63;21.31
28683;BME280;15862;43.062;25.626;2022-08-16T12:02:45;99206.06;;;44.51;20.70
28683;BME280;15862;43.062;25.626;2022-08-16T12:05:12;99203.91;;;42.87;22.62
28683;BME280;15862;43.062;25.626;2022-08-16T12:07:38;99201.81;;;41.14;23.74
28683;BME280;15862;43.062;25.626;2022-08-16T12:10:05;99194.25;;;40.28;25.14
28683;BME280;15862;43.062;25.626;2022-08-16T12:12:31;99200.59;;;39.14;26.06
28683;BME280;15862;43.062;25.626;2022-08-16T12:14:56;99208.56;;;38.20;27.48
28683;BME280;15862;43.062;25.626;2022-08-16T12:17:22;99201.75;;;39.30;26.62
28683;BME280;15862;43.062;25.626;2022-08-16T12:19:47;99190.53;;;39.95;25.21
28683;BME280;15862;43.062;25.626;2022-08-16T12:22:12;99186.16;;;41.11;24.76
28683;BME280;15862;43.062;25.626;2022-08-16T12:24:38;99190.69;;;42.09;23.84
28683;BME280;15862;43.062;25.626;2022-08-16T12:27:04;99181.88;;;42.56;23.15
28683;BME280;15862;43.062;25.626;2022-08-16T12:29:29;99174.16;;;43.42;21.58
28683;BME280;15862;43.062;25.626;2022-08-16T12:31:55;99180.44;;;43.18;22.25
28683;BME280;15862;43.062;25.626;2022-08-16T12:34:20;99172.22;;;42.47;23.06
28683;BME280;15862;43.062;25.626;2022-08-16T12:36:45;99163.03;;;41.95;23.14
28683;BME280;15862;43.062;25.626;2022-08-16T12:39:11;99160.00;;;40.78;24.57
28683;BME280;15862;43.062;25.626;2022-08-16T12:41:37;99161.53;;;39.62;25.15
28683;BME280;15862;43.062;25.626;2022-08-16T12:44:03;99153.84;;;40.06;24.25